Time;durP1;ratioP1;P1;durP2;ratioP2;P2;SDS_P1;SDS_P2;PMS_P1;PMS_P2;Temp;Humidity;BMP_temperature;BMP_pressure;BME280_temperature;BME280_humidity;BME280_pressure;Samples;Min_cycle;Max_cycle;Signal;HPM_P1;HPM_P2
2022/03/10 00:04:36;;;;;;;6.70;4.50;;;;;;;3.35;63.31;99613.52;218256;1276;24400;-69
2022/03/10 00:09:50;;;;;;;7.70;4.70;;;;;;;3.34;63.34;99617.23;217950;1276;25267;-69
2022/03/10 00:15:18;;;;;;;7.00;4.40;;;;;;;3.29;63.50;99623.98;218234;1276;22699;-69
2022/03/10 00:20:21;;;;;;;7.30;5.10;;;;;;;3.19;63.76;99627.45;218662;1276;24328;-68
2022/03/10 00:25:23;;;;;;;10.00;5.90;;;;;;;3.17;64.10;99638.64;218065;1276;22561;-68
2022/03/10 00:30:28;;;;;;;11.90;6.80;;;;;;;3.13;64.36;99644.54;218077;1276;22566;-68
2022/03/10 00:35:30;;;;;;;15.00;9.10;;;;;;;3.05;64.75;99648.77;218162;1276;22593;-68
2022/03/10 00:40:33;;;;;;;15.90;10.60;;;;;;;2.96;65.20;99649.61;218247;1276;22570;-69
2022/03/10 00:45:35;;;;;;;17.00;11.30;;;;;;;2.86;65.50;99655.81;218054;1276;22589;-69
2022/03/10 00:50:38;;;;;;;15.10;10.60;;;;;;;2.78;65.77;99657.08;218357;1276;22629;-70
2022/03/10 00:55:44;;;;;;;16.00;10.40;;;;;;;2.69;65.84;99660.73;218208;1276;22743;-69
2022/03/10 01:00:46;;;;;;;16.10;10.00;;;;;;;2.58;65.62;99672.16;218305;1276;22736;-68
2022/03/10 01:05:49;;;;;;;14.60;8.70;;;;;;;2.39;65.19;99664.42;218208;1276;23743;-69
2022/03/10 01:10:51;;;;;;;15.00;8.50;;;;;;;2.16;64.85;99672.88;218093;1276;24384;-68
2022/03/10 01:15:53;;;;;;;14.00;9.20;;;;;;;1.97;65.03;99674.14;218332;1276;24252;-68
2022/03/10 01:20:56;;;;;;;18.60;10.70;;;;;;;1.82;64.88;99681.11;218102;1276;25314;-68
2022/03/10 01:26:00;;;;;;;20.50;12.40;;;;;;;1.69;65.05;99688.79;218309;1276;25438;-68
2022/03/10 01:31:17;;;;;;;22.20;13.70;;;;;;;1.53;65.28;99693.38;218231;1276;24254;-69
2022/03/10 01:36:40;;;;;;;23.10;14.30;;;;;;;1.38;65.76;99691.26;217968;1276;22574;-69
2022/03/10 01:41:43;;;;;;;26.70;15.60;;;;;;;1.25;65.93;99697.52;218190;1276;22703;-68
2022/03/10 01:46:46;;;;;;;25.00;14.50;;;;;;;1.12;66.34;99693.66;218096;1276;23132;-68
2022/03/10 01:51:49;;;;;;;27.10;16.70;;;;;;;1.04;66.42;99698.55;218168;1276;22902;-68
2022/03/10 01:56:57;;;;;;;26.00;15.60;;;;;;;0.92;66.57;99705.65;218098;1276;24339;-68
2022/03/10 02:02:19;;;;;;;28.80;17.20;;;;;;;0.76;66.42;99711.06;218460;1276;22629;-69
2022/03/10 02:12:57;;;;;;;27.00;14.10;;;;;;;0.52;67.00;99716.25;218280;1276;25253;-68
2022/03/10 02:18:11;;;;;;;23.40;13.30;;;;;;;0.44;67.09;99724.17;218595;1276;25284;-68
2022/03/10 02:23:13;;;;;;;20.70;11.80;;;;;;;0.39;66.97;99733.23;218393;1276;22561;-70
2022/03/10 02:28:17;;;;;;;21.70;12.60;;;;;;;0.32;66.65;99741.30;218202;1276;25305;-69
2022/03/10 02:33:20;;;;;;;24.30;13.70;;;;;;;0.25;66.57;99742.89;218245;1276;25983;-68
2022/03/10 02:38:31;;;;;;;23.80;12.60;;;;;;;0.18;66.28;99751.93;218361;1276;22748;-69
2022/03/10 02:43:37;;;;;;;24.00;13.20;;;;;;;0.12;66.04;99758.63;218447;1276;23395;-69
2022/03/10 02:48:42;;;;;;;24.80;14.00;;;;;;;0.09;66.42;99768.16;218118;1276;24258;-70
2022/03/10 02:53:45;;;;;;;22.10;12.80;;;;;;;0.07;66.42;99777.31;217945;1276;23331;-68
2022/03/10 02:58:47;;;;;;;21.30;12.80;;;;;;;0.09;66.66;99776.42;218278;1275;22539;-68
2022/03/10 03:03:49;;;;;;;24.40;13.20;;;;;;;0.08;66.33;99783.39;218149;1276;24208;-68
2022/03/10 03:08:52;;;;;;;22.80;12.50;;;;;;;0.04;66.46;99793.37;218579;1276;22925;-68
2022/03/10 03:13:56;;;;;;;19.60;11.60;;;;;;;0.01;66.45;99804.77;218399;1276;22528;-69
2022/03/10 03:19:01;;;;;;;19.80;11.50;;;;;;;-0.01;66.36;99817.52;218109;1276;22604;-69
2022/03/10 03:24:05;;;;;;;21.20;12.30;;;;;;;-0.02;66.26;99827.14;218220;1276;22588;-69
2022/03/10 03:29:10;;;;;;;13.30;8.40;;;;;;;-0.08;66.21;99825.02;218272;1276;22562;-69
2022/03/10 03:34:12;;;;;;;13.40;8.00;;;;;;;-0.13;65.91;99834.35;218356;1276;22566;-69
2022/03/10 03:39:15;;;;;;;13.20;6.90;;;;;;;-0.14;65.91;99841.46;219384;1276;22723;-69
2022/03/10 03:44:24;;;;;;;10.30;6.00;;;;;;;-0.17;66.13;99846.21;218125;1276;24214;-70
2022/03/10 03:49:46;;;;;;;10.70;5.80;;;;;;;-0.24;65.60;99853.54;218234;1277;22694;-68
2022/03/10 03:54:49;;;;;;;7.10;4.50;;;;;;;-0.29;65.04;99857.84;218079;1276;24701;-68
2022/03/10 03:59:51;;;;;;;5.80;4.00;;;;;;;-0.37;64.36;99859.55;218094;1276;23342;-69
2022/03/10 04:04:54;;;;;;;7.40;4.80;;;;;;;-0.53;64.20;99868.81;217705;1276;22655;-70
2022/03/10 04:09:56;;;;;;;12.80;5.20;;;;;;;-0.71;63.99;99871.02;218109;1277;26774;-69
2022/03/10 04:15:11;;;;;;;6.20;4.70;;;;;;;-0.89;63.97;99877.64;218344;1276;24319;-70
2022/03/10 04:20:30;;;;;;;7.80;4.70;;;;;;;-1.06;64.13;99880.77;217994;1276;25370;-70
2022/03/10 04:25:53;;;;;;;8.00;5.00;;;;;;;-1.20;64.40;99890.11;218241;1276;25128;-69
2022/03/10 04:30:56;;;;;;;10.20;5.70;;;;;;;-1.30;64.54;99896.94;218099;1276;22708;-68
2022/03/10 04:36:09;;;;;;;8.80;5.40;;;;;;;-1.38;64.68;99906.23;219466;1276;24111;-69
2022/03/10 04:41:12;;;;;;;10.10;6.30;;;;;;;-1.43;65.18;99910.63;217957;1276;22894;-69
2022/03/10 04:46:15;;;;;;;12.50;6.90;;;;;;;-1.43;65.22;99920.73;218231;1276;25448;-69
2022/03/10 04:51:18;;;;;;;11.70;6.60;;;;;;;-1.43;65.37;99930.08;218328;1276;23201;-68
2022/03/10 04:56:37;;;;;;;12.10;6.50;;;;;;;-1.43;65.59;99928.02;218198;1276;22628;-70
2022/03/10 05:01:39;;;;;;;10.30;6.50;;;;;;;-1.45;65.46;99928.23;218170;1276;22609;-70
2022/03/10 05:06:42;;;;;;;11.60;6.10;;;;;;;-1.51;65.43;99932.85;218171;1276;25324;-68
2022/03/10 05:11:45;;;;;;;13.20;6.30;;;;;;;-1.58;65.52;99935.59;218214;1276;22518;-69
2022/03/10 05:16:51;;;;;;;11.60;6.00;;;;;;;-1.61;65.64;99943.11;218676;1276;23306;-69
2022/03/10 05:21:54;;;;;;;10.00;6.00;;;;;;;-1.59;66.25;99949.02;218370;1276;22764;-67
2022/03/10 05:27:00;;;;;;;10.20;5.50;;;;;;;-1.47;66.87;99957.23;218144;1277;22538;-68
2022/03/10 05:32:08;;;;;;;9.20;5.80;;;;;;;-1.25;66.86;99968.13;218810;1277;22583;-68
2022/03/10 05:37:32;;;;;;;11.80;6.70;;;;;;;-1.04;66.63;99973.05;218768;1276;24252;-69
2022/03/10 05:42:39;;;;;;;9.90;6.00;;;;;;;-0.86;66.32;99978.95;218658;1276;23471;-69
2022/03/10 05:54:11;;;;;;;13.00;7.40;;;;;;;-0.46;66.06;100000.94;218553;1276;22616;-69
2022/03/10 06:00:01;;;;;;;11.50;7.20;;;;;;;-0.39;65.50;100004.92;218797;1277;22557;-69
2022/03/10 06:05:30;;;;;;;12.20;5.50;;;;;;;-0.30;64.98;100008.77;218685;1277;22548;-70
2022/03/10 06:18:24;;;;;;;9.70;6.00;;;;;;;-0.52;64.52;100032.23;218563;1277;22663;-70
2022/03/10 06:24:48;;;;;;;16.00;6.90;;;;;;;-0.65;64.66;100046.52;218314;1277;22561;-70
2022/03/10 06:36:50;;;;;;;14.70;7.50;;;;;;;-0.81;64.73;100064.83;218028;1277;24265;-69
2022/03/10 06:42:34;;;;;;;14.40;7.10;;;;;;;-0.79;65.36;100069.88;218176;1277;23344;-69
2022/03/10 06:47:47;;;;;;;10.40;6.40;;;;;;;-0.76;65.30;100077.08;218336;1277;23941;-70
2022/03/10 06:53:23;;;;;;;11.90;6.90;;;;;;;-0.69;65.20;100087.01;218324;1277;23940;-69
2022/03/10 06:58:29;;;;;;;13.80;7.10;;;;;;;-0.63;65.23;100089.79;218083;1277;22607;-69
2022/03/10 07:03:55;;;;;;;12.70;6.30;;;;;;;-0.54;65.17;100095.71;218101;1277;23226;-70
2022/03/10 07:09:03;;;;;;;9.50;6.40;;;;;;;-0.43;64.78;100098.64;218087;1276;22927;-69
2022/03/10 07:14:09;;;;;;;10.20;6.10;;;;;;;-0.30;63.97;100098.67;218253;1277;24408;-68
2022/03/10 07:19:13;;;;;;;7.30;4.70;;;;;;;-0.17;62.80;100111.84;218258;1278;24348;-70
2022/03/10 07:24:35;;;;;;;6.70;4.60;;;;;;;-0.09;61.40;100116.67;210733;1277;10384895;-71
2022/03/10 07:29:38;;;;;;;6.50;4.40;;;;;;;-0.01;60.68;100130.10;220729;1276;24573;-68
2022/03/10 07:34:40;;;;;;;8.90;4.40;;;;;;;0.07;59.90;100128.67;218265;1277;26291;-68
2022/03/10 07:40:11;;;;;;;8.60;4.20;;;;;;;0.19;59.30;100126.81;218345;1277;23125;-68
2022/03/10 07:45:13;;;;;;;7.00;4.60;;;;;;;0.27;58.38;100131.68;218184;1277;24330;-67
2022/03/10 07:50:20;;;;;;;8.60;4.40;;;;;;;0.29;57.71;100132.45;217998;1277;24820;-68
2022/03/10 07:55:22;;;;;;;6.00;3.80;;;;;;;0.34;57.07;100136.80;218218;1276;23358;-68
2022/03/10 08:00:27;;;;;;;7.90;4.70;;;;;;;0.44;56.98;100139.32;218195;1277;22698;-69
2022/03/10 08:05:37;;;;;;;7.20;4.30;;;;;;;0.55;56.72;100136.33;218046;1276;22514;-67
2022/03/10 08:10:56;;;;;;;8.10;4.40;;;;;;;0.70;56.46;100136.15;218332;1278;22563;-68
2022/03/10 08:15:59;;;;;;;8.60;4.50;;;;;;;0.83;55.89;100140.19;218287;1277;22735;-69
2022/03/10 08:21:02;;;;;;;8.70;4.70;;;;;;;0.94;54.70;100141.48;219134;1276;25249;-68
2022/03/10 08:26:05;;;;;;;11.00;4.80;;;;;;;0.97;54.41;100142.98;218725;1277;22671;-67
2022/03/10 08:31:07;;;;;;;9.90;5.10;;;;;;;0.97;53.62;100146.91;218252;1277;22623;-67
2022/03/10 08:36:10;;;;;;;11.20;5.80;;;;;;;0.96;53.80;100147.88;218549;1277;24971;-68
2022/03/10 08:41:13;;;;;;;7.90;5.90;;;;;;;1.14;54.53;100148.05;218223;1276;22573;-68
2022/03/10 08:46:49;;;;;;;14.00;6.10;;;;;;;1.37;54.36;100149.58;218413;1276;26540;-68
2022/03/10 08:52:14;;;;;;;10.80;6.50;;;;;;;1.53;54.26;100150.11;218161;1277;22694;-69
2022/03/10 08:57:16;;;;;;;12.20;6.30;;;;;;;1.63;53.85;100156.23;218242;1276;22566;-69
2022/03/10 09:02:19;;;;;;;14.10;6.30;;;;;;;1.68;53.77;100155.85;218256;1277;22534;-70
2022/03/10 09:07:21;;;;;;;13.50;6.10;;;;;;;1.74;52.80;100161.03;218220;1276;22574;-68
2022/03/10 09:12:24;;;;;;;10.70;5.60;;;;;;;1.76;52.14;100168.85;218291;1276;24296;-68
2022/03/10 09:17:35;;;;;;;12.50;5.90;;;;;;;1.78;51.85;100164.23;218366;1276;22694;-67
2022/03/10 09:22:47;;;;;;;9.70;5.60;;;;;;;1.79;51.92;100167.84;220406;1276;24371;-68
2022/03/10 09:27:49;;;;;;;10.20;5.30;;;;;;;1.80;50.57;100163.77;218387;1276;22585;-67
2022/03/10 09:32:52;;;;;;;9.70;5.40;;;;;;;1.78;50.45;100166.95;218289;1275;22657;-68
2022/03/10 09:37:54;;;;;;;11.10;5.20;;;;;;;1.79;50.10;100177.64;218068;1277;24012;-68
2022/03/10 09:42:59;;;;;;;7.30;4.60;;;;;;;1.85;50.43;100177.48;218438;1276;22762;-68
2022/03/10 09:48:02;;;;;;;8.20;4.10;;;;;;;1.94;49.51;100179.09;218283;1276;22599;-69
2022/03/10 09:53:04;;;;;;;11.20;4.70;;;;;;;2.04;49.54;100179.33;218645;1277;22582;-69
2022/03/10 09:58:16;;;;;;;6.50;3.70;;;;;;;2.19;48.68;100176.70;218420;1276;24532;-70
2022/03/10 10:03:18;;;;;;;5.10;3.10;;;;;;;2.16;47.33;100179.38;218190;1276;22577;-69
2022/03/10 10:08:24;;;;;;;6.00;3.00;;;;;;;2.18;46.72;100183.53;218203;1276;24263;-68
2022/03/10 10:13:58;;;;;;;6.70;3.40;;;;;;;2.21;45.55;100195.35;218274;1277;22706;-70
2022/03/10 10:19:00;;;;;;;6.00;3.40;;;;;;;2.18;45.91;100198.70;218144;1276;22835;-70
2022/03/10 10:24:16;;;;;;;7.70;3.60;;;;;;;2.19;45.68;100201.08;218287;1276;22556;-69
2022/03/10 10:29:27;;;;;;;6.70;3.20;;;;;;;2.22;45.68;100206.05;218696;1276;24234;-69
2022/03/10 10:34:32;;;;;;;5.60;2.80;;;;;;;2.35;45.53;100210.68;218162;1277;22609;-69
2022/03/10 10:39:53;;;;;;;5.60;2.90;;;;;;;2.38;44.62;100213.70;218111;1277;22567;-70
2022/03/10 10:44:56;;;;;;;4.10;2.00;;;;;;;2.43;44.40;100210.79;218749;1276;22583;-69
2022/03/10 10:50:05;;;;;;;4.00;2.60;;;;;;;2.54;43.72;100197.91;218178;1276;22700;-69
2022/03/10 10:55:13;;;;;;;5.60;2.80;;;;;;;2.68;43.72;100196.31;218746;1276;22541;-69
2022/03/10 11:00:17;;;;;;;4.80;3.00;;;;;;;2.78;43.37;100197.59;218426;1276;23076;-69
2022/03/10 11:05:19;;;;;;;6.50;3.30;;;;;;;2.79;43.33;100201.08;218598;1276;25485;-69
2022/03/10 11:10:22;;;;;;;5.60;3.10;;;;;;;2.77;42.73;100198.13;218295;1277;22739;-70
2022/03/10 11:15:24;;;;;;;6.00;3.00;;;;;;;2.75;43.10;100196.73;218077;1276;26128;-70
2022/03/10 11:20:41;;;;;;;6.00;2.80;;;;;;;2.88;43.11;100206.36;218094;1276;22596;-70
2022/03/10 11:26:00;;;;;;;6.70;2.90;;;;;;;2.88;42.48;100208.55;218418;1276;22659;-69
2022/03/10 11:31:06;;;;;;;4.60;2.80;;;;;;;2.91;42.59;100206.30;218346;1276;22669;-70
2022/03/10 11:36:26;;;;;;;4.20;2.60;;;;;;;2.99;42.09;100209.42;218290;1276;22571;-70
2022/03/10 11:41:41;;;;;;;4.20;2.80;;;;;;;2.92;41.50;100207.82;220627;1276;26727;-70
2022/03/10 11:46:58;;;;;;;4.60;3.00;;;;;;;3.02;41.99;100209.17;218099;1275;25215;-69
2022/03/10 11:52:04;;;;;;;4.50;2.70;;;;;;;3.09;41.61;100217.23;218171;1276;26120;-69
2022/03/10 11:57:07;;;;;;;4.00;2.90;;;;;;;3.19;41.60;100219.44;220441;1277;22594;-69
2022/03/10 12:02:40;;;;;;;5.30;3.50;;;;;;;3.20;41.49;100219.14;220360;1276;25372;-68
2022/03/10 12:07:50;;;;;;;4.00;2.80;;;;;;;3.19;40.86;100218.05;218162;1276;22534;-68
2022/03/10 12:12:55;;;;;;;4.90;3.20;;;;;;;3.16;40.84;100220.14;218241;1276;22720;-68
2022/03/10 12:18:21;;;;;;;5.30;3.10;;;;;;;3.23;41.04;100219.32;218253;1277;25413;-68
2022/03/10 12:24:02;;;;;;;5.30;2.90;;;;;;;3.34;40.55;100218.81;218125;1276;22560;-70
2022/03/10 12:29:10;;;;;;;7.10;3.60;;;;;;;3.41;40.73;100210.98;218084;1276;25430;-70
2022/03/10 12:34:14;;;;;;;6.00;3.40;;;;;;;3.54;41.15;100209.63;218153;1276;22613;-69
2022/03/10 12:39:32;;;;;;;5.70;3.10;;;;;;;3.55;40.83;100208.98;218190;1275;22574;-69
2022/03/10 12:44:56;;;;;;;7.20;3.70;;;;;;;3.52;40.52;100206.33;220616;1276;24257;-69
2022/03/10 12:50:02;;;;;;;5.40;3.80;;;;;;;3.56;40.97;100206.27;218375;1276;24824;-69
2022/03/10 12:55:11;;;;;;;5.20;3.40;;;;;;;3.61;40.65;100209.94;218349;1276;22747;-68
2022/03/10 13:00:44;;;;;;;4.70;3.40;;;;;;;3.71;40.85;100207.80;218281;1276;22596;-69
2022/03/10 13:05:50;;;;;;;5.90;3.60;;;;;;;3.75;40.80;100207.10;218192;1276;23755;-69
2022/03/10 13:11:06;;;;;;;4.20;3.20;;;;;;;3.76;40.84;100201.55;218150;1276;22543;-69
2022/03/10 13:16:23;;;;;;;5.60;3.70;;;;;;;3.84;40.73;100199.27;218767;1276;27412;-70
2022/03/10 13:21:26;;;;;;;5.10;3.60;;;;;;;3.76;40.27;100202.77;218027;1276;25817;-69
2022/03/10 13:26:28;;;;;;;6.80;3.50;;;;;;;3.65;40.01;100200.77;218006;1276;22653;-69
2022/03/10 13:31:31;;;;;;;8.00;3.40;;;;;;;3.59;39.98;100198.61;218112;1276;23988;-69
2022/03/10 13:36:34;;;;;;;5.80;3.40;;;;;;;3.49;39.85;100197.83;218132;1276;25469;-68
2022/03/10 13:41:36;;;;;;;7.40;3.90;;;;;;;3.40;40.10;100192.20;218228;1276;23972;-69
2022/03/10 13:46:38;;;;;;;5.60;3.50;;;;;;;3.34;40.04;100182.27;218273;1276;22558;-70
2022/03/10 13:51:41;;;;;;;9.40;4.40;;;;;;;3.41;40.12;100187.95;218239;1276;22597;-69
2022/03/10 13:56:53;;;;;;;7.50;4.00;;;;;;;3.50;40.43;100190.23;217886;1276;23707;-69
2022/03/10 14:02:29;;;;;;;4.60;3.20;;;;;;;3.53;40.05;100193.90;218317;1276;22631;-69
2022/03/10 14:07:32;;;;;;;6.40;3.40;;;;;;;3.51;40.06;100179.34;218274;1276;22615;-69
2022/03/10 14:12:34;;;;;;;5.90;3.70;;;;;;;3.48;40.12;100179.72;218426;1276;22709;-68
2022/03/10 14:17:41;;;;;;;5.70;3.50;;;;;;;3.44;39.84;100181.44;218138;1274;22551;-69
2022/03/10 14:23:20;;;;;;;5.70;3.40;;;;;;;3.37;39.74;100184.14;219769;1276;22605;-70
2022/03/10 14:28:49;;;;;;;7.80;3.80;;;;;;;3.39;40.12;100182.17;218784;1277;25942;-70
2022/03/10 14:34:17;;;;;;;6.20;3.60;;;;;;;3.33;39.77;100178.35;220562;1277;24305;-70
2022/03/10 14:39:20;;;;;;;7.00;3.80;;;;;;;3.31;39.64;100173.42;218436;1276;22560;-70
2022/03/10 14:44:22;;;;;;;9.90;4.40;;;;;;;3.23;40.02;100180.73;218179;1278;22630;-70
2022/03/10 14:49:25;;;;;;;10.90;4.20;;;;;;;3.17;39.88;100175.07;218474;1277;24307;-69
2022/03/10 14:54:27;;;;;;;8.50;4.30;;;;;;;3.07;39.79;100177.80;218744;1276;24257;-70
2022/03/10 14:59:30;;;;;;;5.10;3.10;;;;;;;2.95;39.98;100173.52;218358;1276;22563;-69
2022/03/10 15:04:33;;;;;;;5.50;3.30;;;;;;;2.98;40.47;100173.97;219455;1276;26094;-70
2022/03/10 15:09:35;;;;;;;6.10;3.90;;;;;;;2.94;40.09;100177.35;218777;1276;22542;-69
2022/03/10 15:14:38;;;;;;;4.80;3.30;;;;;;;2.81;40.02;100173.68;218842;1276;25355;-70
2022/03/10 15:19:45;;;;;;;6.20;3.90;;;;;;;2.73;40.03;100174.70;218781;1276;22543;-69
2022/03/10 15:24:47;;;;;;;10.80;4.80;;;;;;;2.66;40.32;100174.98;218728;1276;22797;-69
2022/03/10 15:29:55;;;;;;;8.60;4.00;;;;;;;2.58;40.75;100181.33;218591;1276;22636;-69
2022/03/10 15:35:17;;;;;;;5.30;3.40;;;;;;;2.44;40.00;100184.05;218811;1276;23777;-70
2022/03/10 15:40:27;;;;;;;5.30;3.50;;;;;;;2.30;39.97;100185.40;218621;1276;22660;-70
2022/03/10 15:45:33;;;;;;;5.30;3.10;;;;;;;2.19;40.06;100194.92;218879;1276;22777;-69
2022/03/10 15:50:36;;;;;;;7.00;4.10;;;;;;;2.01;40.55;100202.27;220451;1276;22570;-69
2022/03/10 15:55:48;;;;;;;10.90;3.90;;;;;;;1.92;40.66;100202.34;220463;1276;23804;-69
2022/03/10 16:01:31;;;;;;;4.50;3.20;;;;;;;1.83;40.80;100208.64;218894;1276;22559;-70
2022/03/10 16:06:42;;;;;;;8.40;3.80;;;;;;;1.72;41.10;100212.81;218419;1276;22782;-69
2022/03/10 16:11:46;;;;;;;8.10;4.10;;;;;;;1.60;41.51;100219.45;218396;1276;22552;-70
2022/03/10 16:17:03;;;;;;;6.70;3.60;;;;;;;1.40;42.14;100221.75;218270;1276;24263;-69
2022/03/10 16:22:21;;;;;;;6.60;3.90;;;;;;;1.18;42.11;100219.76;218502;1276;22662;-70
2022/03/10 16:27:37;;;;;;;9.90;3.90;;;;;;;1.03;42.35;100227.59;218354;1276;24280;-70
2022/03/10 16:32:41;;;;;;;11.20;4.80;;;;;;;0.88;42.51;100227.16;218581;1276;24275;-70
2022/03/10 16:37:44;;;;;;;8.40;4.60;;;;;;;0.69;43.07;100232.22;218418;1276;24261;-70
2022/03/10 16:42:50;;;;;;;9.70;4.30;;;;;;;0.49;43.12;100231.30;218571;1276;23836;-70
2022/03/10 16:48:03;;;;;;;7.40;4.10;;;;;;;0.30;43.44;100233.91;220517;1276;25604;-70
2022/03/10 16:53:25;;;;;;;11.80;5.10;;;;;;;0.09;44.38;100233.73;218476;1276;26713;-70
2022/03/10 16:58:29;;;;;;;11.90;5.90;;;;;;;-0.09;45.06;100239.27;218573;1276;22636;-70
2022/03/10 17:03:32;;;;;;;13.90;6.40;;;;;;;-0.26;45.22;100241.82;218760;1276;22589;-70
2022/03/10 17:08:34;;;;;;;17.60;6.20;;;;;;;-0.45;46.01;100245.73;218926;1277;24287;-69
2022/03/10 17:13:36;;;;;;;12.10;6.20;;;;;;;-0.61;46.19;100254.80;218403;1276;22620;-68
2022/03/10 17:18:40;;;;;;;16.50;7.00;;;;;;;-0.75;46.60;100259.08;218552;1276;23869;-69
2022/03/10 17:23:43;;;;;;;13.40;6.80;;;;;;;-0.86;46.82;100269.77;218502;1276;24512;-70
2022/03/10 17:28:46;;;;;;;14.70;6.50;;;;;;;-0.91;46.90;100273.66;218819;1276;23009;-69
2022/03/10 17:33:48;;;;;;;14.60;6.80;;;;;;;-0.95;47.25;100278.33;218308;1276;24291;-70
2022/03/10 17:38:50;;;;;;;13.80;6.90;;;;;;;-1.03;47.72;100284.23;218555;1276;23371;-70
2022/03/10 17:43:54;;;;;;;18.60;8.60;;;;;;;-1.13;47.83;100285.13;218559;1276;25182;-70
2022/03/10 17:48:57;;;;;;;23.70;9.90;;;;;;;-1.25;48.00;100288.20;220508;1276;22642;-69
2022/03/10 17:54:01;;;;;;;24.20;11.20;;;;;;;-1.38;48.76;100290.80;218711;1276;25473;-70
2022/03/10 17:59:03;;;;;;;28.00;12.40;;;;;;;-1.49;48.75;100296.05;219303;1276;22800;-69
2022/03/10 18:04:05;;;;;;;26.80;10.20;;;;;;;-1.58;49.12;100300.86;218798;1276;22658;-69
2022/03/10 18:09:08;;;;;;;18.90;8.60;;;;;;;-1.62;48.91;100300.09;218548;1276;22994;-69
2022/03/10 18:14:10;;;;;;;22.90;9.60;;;;;;;-1.63;49.23;100304.73;218750;1276;24231;-69
2022/03/10 18:19:15;;;;;;;23.20;10.40;;;;;;;-1.68;49.28;100308.29;218364;1276;22541;-69
2022/03/10 18:24:31;;;;;;;27.90;11.20;;;;;;;-1.68;49.70;100310.95;218404;1276;24433;-70
2022/03/10 18:29:48;;;;;;;21.10;9.70;;;;;;;-1.71;50.09;100314.18;218481;1276;22764;-69
2022/03/10 18:34:54;;;;;;;18.50;8.00;;;;;;;-1.75;50.25;100316.08;218399;1276;25332;-69
2022/03/10 18:40:09;;;;;;;17.70;8.00;;;;;;;-1.80;50.17;100317.83;218196;1277;24257;-70
2022/03/10 18:45:18;;;;;;;17.30;8.50;;;;;;;-1.83;50.04;100317.80;218481;1276;24886;-70
2022/03/10 18:50:21;;;;;;;16.30;8.30;;;;;;;-1.88;50.13;100325.16;218624;1276;22599;-69
2022/03/10 18:55:28;;;;;;;19.20;9.30;;;;;;;-1.93;50.37;100318.18;218858;1276;23450;-70
2022/03/10 19:00:32;;;;;;;20.60;10.00;;;;;;;-1.95;50.52;100321.55;218510;1276;22548;-70
2022/03/10 19:05:36;;;;;;;18.90;9.80;;;;;;;-2.03;50.92;100325.21;218430;1276;22580;-69
2022/03/10 19:10:38;;;;;;;20.30;9.30;;;;;;;-2.09;50.80;100324.96;218579;1276;22580;-69
2022/03/10 19:15:47;;;;;;;22.00;10.00;;;;;;;-2.19;50.79;100326.95;218371;1276;24216;-69
2022/03/10 19:20:50;;;;;;;21.00;9.70;;;;;;;-2.32;50.92;100331.73;218493;1276;22781;-69
2022/03/10 19:25:55;;;;;;;22.70;10.20;;;;;;;-2.44;51.33;100337.53;218158;1276;212406;-69
2022/03/10 19:31:00;;;;;;;25.40;11.70;;;;;;;-2.51;51.60;100336.88;218415;1276;22647;-69
2022/03/10 19:36:03;;;;;;;26.00;11.20;;;;;;;-2.56;51.90;100343.38;218342;1276;22535;-69
2022/03/10 19:41:21;;;;;;;24.90;10.80;;;;;;;-2.60;52.42;100346.36;218385;1276;22737;-69
2022/03/10 19:46:23;;;;;;;28.60;12.70;;;;;;;-2.62;52.32;100348.88;218456;1276;22715;-68
2022/03/10 19:51:27;;;;;;;26.00;11.90;;;;;;;-2.62;51.94;100356.39;218546;1276;24374;-70
2022/03/10 19:56:32;;;;;;;26.10;11.20;;;;;;;-2.58;51.74;100359.32;218425;1276;23960;-68
2022/03/10 20:01:42;;;;;;;19.10;9.30;;;;;;;-2.57;51.57;100361.12;220412;1276;25712;-69
2022/03/10 20:06:45;;;;;;;18.60;8.90;;;;;;;-2.52;51.89;100361.61;218349;1276;22648;-69
2022/03/10 20:11:47;;;;;;;17.10;9.30;;;;;;;-2.54;51.75;100361.04;218490;1276;25576;-70
2022/03/10 20:16:52;;;;;;;17.00;8.80;;;;;;;-2.55;51.94;100362.17;218536;1276;26734;-70
2022/03/10 20:22:11;;;;;;;18.30;8.50;;;;;;;-2.60;51.90;100366.43;218438;1276;22597;-70
2022/03/10 20:27:20;;;;;;;17.10;8.10;;;;;;;-2.56;52.18;100365.73;218427;1276;22809;-70
2022/03/10 20:32:22;;;;;;;16.00;7.70;;;;;;;-2.55;52.35;100365.66;218466;1276;22551;-69
2022/03/10 20:37:25;;;;;;;15.40;7.30;;;;;;;-2.61;52.34;100374.17;218846;1276;23870;-70
2022/03/10 20:42:30;;;;;;;19.10;8.50;;;;;;;-2.69;52.61;100377.61;218591;1276;22553;-69
2022/03/10 20:47:32;;;;;;;20.90;9.00;;;;;;;-2.78;52.56;100372.55;218337;1276;24251;-70
2022/03/10 20:52:35;;;;;;;17.50;8.60;;;;;;;-2.79;52.73;100373.59;218472;1276;22617;-69
2022/03/10 20:58:01;;;;;;;19.60;9.40;;;;;;;-2.84;52.77;100374.34;218300;1276;25613;-69
2022/03/10 21:03:06;;;;;;;19.40;8.80;;;;;;;-2.94;52.98;100374.05;218370;1276;23204;-70
2022/03/10 21:08:08;;;;;;;15.70;8.10;;;;;;;-2.99;53.05;100376.89;218485;1276;22952;-70
2022/03/10 21:13:11;;;;;;;15.00;8.60;;;;;;;-3.02;52.97;100377.08;218362;1277;22820;-69
2022/03/10 21:18:26;;;;;;;15.90;7.30;;;;;;;-3.08;53.12;100375.88;218955;1276;22563;-69
2022/03/10 21:23:43;;;;;;;16.10;8.50;;;;;;;-3.13;53.18;100377.05;218320;1276;23265;-68
2022/03/10 21:28:48;;;;;;;16.60;8.20;;;;;;;-3.17;53.20;100371.01;218564;1276;22976;-69
2022/03/10 21:33:57;;;;;;;20.80;8.40;;;;;;;-3.22;53.41;100371.42;218493;1276;22873;-70
2022/03/10 21:39:07;;;;;;;20.00;9.70;;;;;;;-3.24;53.53;100371.81;218376;1276;22807;-70
2022/03/10 21:44:11;;;;;;;15.20;7.80;;;;;;;-3.28;53.66;100378.94;218278;1277;22597;-69
2022/03/10 21:49:14;;;;;;;17.20;7.90;;;;;;;-3.32;53.90;100378.20;218436;1276;22960;-70
2022/03/10 21:54:20;;;;;;;17.20;8.70;;;;;;;-3.41;54.08;100382.56;218506;1276;24485;-71
2022/03/10 21:59:26;;;;;;;19.10;9.00;;;;;;;-3.45;54.53;100383.30;218385;1276;22661;-69
2022/03/10 22:04:28;;;;;;;20.70;8.80;;;;;;;-3.39;54.76;100378.18;218270;1276;22789;-71
2022/03/10 22:09:31;;;;;;;19.90;9.30;;;;;;;-3.38;54.38;100380.73;218465;1276;25708;-71
2022/03/10 22:14:40;;;;;;;18.70;8.60;;;;;;;-3.46;54.54;100384.16;220337;1276;25633;-69
2022/03/10 22:20:03;;;;;;;21.70;10.10;;;;;;;-3.60;54.65;100380.67;218222;1276;22756;-69
2022/03/10 22:25:06;;;;;;;18.40;8.10;;;;;;;-3.62;54.69;100377.73;218265;1276;22697;-70
2022/03/10 22:30:09;;;;;;;18.50;8.10;;;;;;;-3.75;54.83;100378.03;220416;1276;22671;-70
2022/03/10 22:35:11;;;;;;;19.90;8.70;;;;;;;-3.90;55.20;100376.34;218673;1276;24501;-69
2022/03/10 22:40:27;;;;;;;17.30;8.10;;;;;;;-3.98;55.40;100379.89;218267;1276;23065;-70
2022/03/10 22:45:36;;;;;;;17.40;8.10;;;;;;;-4.00;55.56;100381.04;218150;1276;22686;-69
2022/03/10 22:56:06;;;;;;;18.60;8.80;;;;;;;-4.10;55.78;100382.38;218285;1276;22615;-70
2022/03/10 23:01:08;;;;;;;20.90;8.40;;;;;;;-4.19;55.87;100388.45;218347;1276;22941;-69
2022/03/10 23:11:38;;;;;;;24.30;10.20;;;;;;;-4.34;56.49;100390.51;218381;1276;22729;-69
2022/03/10 23:16:42;;;;;;;26.10;11.60;;;;;;;-4.40;56.64;100387.60;218456;1276;22766;-69
2022/03/10 23:21:46;;;;;;;26.20;10.80;;;;;;;-4.39;56.92;100385.42;220240;1276;22913;-69
2022/03/10 23:26:48;;;;;;;27.90;10.20;;;;;;;-4.39;57.12;100385.88;218412;1276;22621;-70
2022/03/10 23:31:55;;;;;;;22.60;9.70;;;;;;;-4.42;57.14;100386.08;218490;1276;22763;-69
2022/03/10 23:37:02;;;;;;;16.20;8.10;;;;;;;-4.49;57.37;100384.61;218538;1276;22747;-70
2022/03/10 23:42:04;;;;;;;18.00;8.90;;;;;;;-4.56;57.59;100382.33;218487;1276;22605;-70
2022/03/10 23:47:10;;;;;;;16.40;8.00;;;;;;;-4.58;57.65;100382.24;218196;1276;22913;-69
2022/03/10 23:52:13;;;;;;;19.00;8.60;;;;;;;-4.58;58.03;100384.50;218476;1277;22790;-70
2022/03/10 23:57:16;;;;;;;16.50;7.90;;;;;;;-4.60;58.04;100390.30;218248;1276;25625;-68
